sensor_id;sensor_type;location;lat;lon;timestamp;temperature;humidity
19945;DHT22;10134;50.952;6.930;2022-09-17T00:01:24;11.80;99.90
19945;DHT22;10134;50.952;6.930;2022-09-17T00:03:56;11.80;99.90
19945;DHT22;10134;50.952;6.930;2022-09-17T00:06:25;11.90;99.90
19945;DHT22;10134;50.952;6.930;2022-09-17T00:08:53;11.80;99.90
19945;DHT22;10134;50.952;6.930;2022-09-17T00:11:25;11.80;99.90
19945;DHT22;10134;50.952;6.930;2022-09-17T00:13:53;11.80;99.90
19945;DHT22;10134;50.952;6.930;2022-09-17T00:16:33;11.90;99.90
19945;DHT22;10134;50.952;6.930;2022-09-17T00:19:03;11.90;99.90
19945;DHT22;10134;50.952;6.930;2022-09-17T00:21:31;11.90;99.90
19945;DHT22;10134;50.952;6.930;2022-09-17T00:24:01;11.90;99.90
19945;DHT22;10134;50.952;6.930;2022-09-17T00:26:29;11.90;99.90
19945;DHT22;10134;50.952;6.930;2022-09-17T00:28:58;11.90;99.90
19945;DHT22;10134;50.952;6.930;2022-09-17T00:31:26;11.90;99.90
19945;DHT22;10134;50.952;6.930;2022-09-17T00:33:54;11.90;99.90
19945;DHT22;10134;50.952;6.930;2022-09-17T00:36:22;11.90;99.90
19945;DHT22;10134;50.952;6.930;2022-09-17T00:38:51;11.90;99.90
19945;DHT22;10134;50.952;6.930;2022-09-17T00:41:19;11.90;99.90
19945;DHT22;10134;50.952;6.930;2022-09-17T00:43:50;11.90;99.90
19945;DHT22;10134;50.952;6.930;2022-09-17T00:48:54;11.90;99.90
19945;DHT22;10134;50.952;6.930;2022-09-17T00:51:28;12.00;99.90
19945;DHT22;10134;50.952;6.930;2022-09-17T00:54:00;12.00;99.90
19945;DHT22;10134;50.952;6.930;2022-09-17T00:56:31;12.00;99.90
19945;DHT22;10134;50.952;6.930;2022-09-17T00:59:00;12.00;99.90
19945;DHT22;10134;50.952;6.930;2022-09-17T01:01:30;12.00;99.90
19945;DHT22;10134;50.952;6.930;2022-09-17T01:03:57;12.00;99.90
19945;DHT22;10134;50.952;6.930;2022-09-17T01:06:36;12.00;99.90
19945;DHT22;10134;50.952;6.930;2022-09-17T01:09:39;12.00;99.90
19945;DHT22;10134;50.952;6.930;2022-09-17T01:17:53;12.00;99.90
19945;DHT22;10134;50.952;6.930;2022-09-17T01:23:18;11.90;99.90
19945;DHT22;10134;50.952;6.930;2022-09-17T01:31:58;11.90;99.90
19945;DHT22;10134;50.952;6.930;2022-09-17T01:37:22;11.90;99.90
19945;DHT22;10134;50.952;6.930;2022-09-17T01:40:20;11.90;99.90
19945;DHT22;10134;50.952;6.930;2022-09-17T01:45:37;11.90;99.90
19945;DHT22;10134;50.952;6.930;2022-09-17T01:48:14;11.90;99.90
19945;DHT22;10134;50.952;6.930;2022-09-17T01:51:05;11.80;99.90
19945;DHT22;10134;50.952;6.930;2022-09-17T01:53:54;11.80;99.90
19945;DHT22;10134;50.952;6.930;2022-09-17T01:56:28;11.80;99.90
19945;DHT22;10134;50.952;6.930;2022-09-17T01:59:21;11.80;99.90
19945;DHT22;10134;50.952;6.930;2022-09-17T02:01:56;11.80;99.90
19945;DHT22;10134;50.952;6.930;2022-09-17T02:04:31;11.80;99.90
19945;DHT22;10134;50.952;6.930;2022-09-17T02:07:05;11.80;99.90
19945;DHT22;10134;50.952;6.930;2022-09-17T02:09:43;11.80;99.90
19945;DHT22;10134;50.952;6.930;2022-09-17T02:12:17;11.80;99.90
19945;DHT22;10134;50.952;6.930;2022-09-17T02:14:49;11.80;99.90
19945;DHT22;10134;50.952;6.930;2022-09-17T02:17:26;11.80;99.90
19945;DHT22;10134;50.952;6.930;2022-09-17T02:19:58;11.80;99.90
19945;DHT22;10134;50.952;6.930;2022-09-17T02:22:48;11.70;99.90
19945;DHT22;10134;50.952;6.930;2022-09-17T02:25:19;11.70;99.90
19945;DHT22;10134;50.952;6.930;2022-09-17T02:30:34;11.70;99.90
19945;DHT22;10134;50.952;6.930;2022-09-17T02:33:03;11.70;99.90
19945;DHT22;10134;50.952;6.930;2022-09-17T02:35:33;11.70;99.90
19945;DHT22;10134;50.952;6.930;2022-09-17T02:38:00;11.70;99.90
19945;DHT22;10134;50.952;6.930;2022-09-17T02:40:30;11.70;99.90
19945;DHT22;10134;50.952;6.930;2022-09-17T02:43:34;11.70;99.90
19945;DHT22;10134;50.952;6.930;2022-09-17T02:52:11;11.80;99.90
19945;DHT22;10134;50.952;6.930;2022-09-17T02:57:57;11.90;99.90
19945;DHT22;10134;50.952;6.930;2022-09-17T03:00:26;11.80;99.90
19945;DHT22;10134;50.952;6.930;2022-09-17T03:03:07;11.90;99.90
19945;DHT22;10134;50.952;6.930;2022-09-17T03:05:37;11.90;99.90
19945;DHT22;10134;50.952;6.930;2022-09-17T03:08:07;11.90;99.90
19945;DHT22;10134;50.952;6.930;2022-09-17T03:10:35;11.90;99.90
19945;DHT22;10134;50.952;6.930;2022-09-17T03:13:03;11.90;99.90
19945;DHT22;10134;50.952;6.930;2022-09-17T03:15:31;11.90;99.90
19945;DHT22;10134;50.952;6.930;2022-09-17T03:17:58;11.90;99.90
19945;DHT22;10134;50.952;6.930;2022-09-17T03:20:25;11.90;99.90
19945;DHT22;10134;50.952;6.930;2022-09-17T03:22:53;11.90;99.90
19945;DHT22;10134;50.952;6.930;2022-09-17T03:25:20;11.90;99.90
19945;DHT22;10134;50.952;6.930;2022-09-17T03:27:47;11.90;99.90
19945;DHT22;10134;50.952;6.930;2022-09-17T03:30:14;12.00;99.90
19945;DHT22;10134;50.952;6.930;2022-09-17T03:32:42;12.00;99.90
19945;DHT22;10134;50.952;6.930;2022-09-17T03:35:09;12.00;99.90
19945;DHT22;10134;50.952;6.930;2022-09-17T03:37:36;12.00;99.90
19945;DHT22;10134;50.952;6.930;2022-09-17T03:40:04;12.00;99.90
19945;DHT22;10134;50.952;6.930;2022-09-17T03:42:32;12.00;99.90
19945;DHT22;10134;50.952;6.930;2022-09-17T03:44:59;12.00;99.90
19945;DHT22;10134;50.952;6.930;2022-09-17T03:47:34;12.00;99.90
19945;DHT22;10134;50.952;6.930;2022-09-17T03:50:01;12.00;99.90
19945;DHT22;10134;50.952;6.930;2022-09-17T03:52:29;12.00;99.90
19945;DHT22;10134;50.952;6.930;2022-09-17T03:54:57;12.00;99.90
19945;DHT22;10134;50.952;6.930;2022-09-17T03:57:24;12.00;99.90
19945;DHT22;10134;50.952;6.930;2022-09-17T03:59:51;12.00;99.90
19945;DHT22;10134;50.952;6.930;2022-09-17T04:02:19;12.00;99.90
19945;DHT22;10134;50.952;6.930;2022-09-17T04:04:46;12.00;99.90
19945;DHT22;10134;50.952;6.930;2022-09-17T04:07:13;12.10;99.90
19945;DHT22;10134;50.952;6.930;2022-09-17T04:09:40;12.10;99.90
19945;DHT22;10134;50.952;6.930;2022-09-17T04:12:08;12.10;99.90
19945;DHT22;10134;50.952;6.930;2022-09-17T04:14:35;12.10;99.90
19945;DHT22;10134;50.952;6.930;2022-09-17T04:17:02;12.10;99.90
19945;DHT22;10134;50.952;6.930;2022-09-17T04:19:30;12.10;99.90
19945;DHT22;10134;50.952;6.930;2022-09-17T04:21:57;12.10;99.90
19945;DHT22;10134;50.952;6.930;2022-09-17T04:24:24;12.10;99.90
19945;DHT22;10134;50.952;6.930;2022-09-17T04:26:51;12.10;99.90
19945;DHT22;10134;50.952;6.930;2022-09-17T04:29:19;12.10;99.90
19945;DHT22;10134;50.952;6.930;2022-09-17T04:31:46;12.10;99.90
19945;DHT22;10134;50.952;6.930;2022-09-17T04:34:13;12.10;99.90
19945;DHT22;10134;50.952;6.930;2022-09-17T04:36:40;12.00;99.90
19945;DHT22;10134;50.952;6.930;2022-09-17T04:39:08;12.00;99.90
19945;DHT22;10134;50.952;6.930;2022-09-17T04:41:35;12.00;99.90
19945;DHT22;10134;50.952;6.930;2022-09-17T04:44:02;12.00;99.90
19945;DHT22;10134;50.952;6.930;2022-09-17T04:46:30;12.00;99.90
19945;DHT22;10134;50.952;6.930;2022-09-17T04:48:57;12.00;99.90
19945;DHT22;10134;50.952;6.930;2022-09-17T04:51:25;12.00;99.90
19945;DHT22;10134;50.952;6.930;2022-09-17T04:53:52;12.00;99.90
19945;DHT22;10134;50.952;6.930;2022-09-17T04:56:19;12.00;99.90
19945;DHT22;10134;50.952;6.930;2022-09-17T04:58:46;11.90;99.90
19945;DHT22;10134;50.952;6.930;2022-09-17T05:01:13;11.90;99.90
19945;DHT22;10134;50.952;6.930;2022-09-17T05:03:44;11.90;99.90
19945;DHT22;10134;50.952;6.930;2022-09-17T05:06:12;11.90;99.90
19945;DHT22;10134;50.952;6.930;2022-09-17T05:08:39;11.90;99.90
19945;DHT22;10134;50.952;6.930;2022-09-17T05:11:06;11.90;99.90
19945;DHT22;10134;50.952;6.930;2022-09-17T05:13:34;11.90;99.90
19945;DHT22;10134;50.952;6.930;2022-09-17T05:16:01;11.80;99.90
19945;DHT22;10134;50.952;6.930;2022-09-17T05:18:29;11.80;99.90
19945;DHT22;10134;50.952;6.930;2022-09-17T05:20:56;11.80;99.90
19945;DHT22;10134;50.952;6.930;2022-09-17T05:23:23;11.80;99.90
19945;DHT22;10134;50.952;6.930;2022-09-17T05:25:51;11.80;99.90
19945;DHT22;10134;50.952;6.930;2022-09-17T05:28:19;11.80;99.90
19945;DHT22;10134;50.952;6.930;2022-09-17T05:30:46;11.80;99.90
19945;DHT22;10134;50.952;6.930;2022-09-17T05:33:13;11.80;99.90
19945;DHT22;10134;50.952;6.930;2022-09-17T05:35:40;11.80;99.90
19945;DHT22;10134;50.952;6.930;2022-09-17T05:38:10;11.80;99.90
19945;DHT22;10134;50.952;6.930;2022-09-17T05:40:37;11.70;99.90
19945;DHT22;10134;50.952;6.930;2022-09-17T05:43:06;11.70;99.90
19945;DHT22;10134;50.952;6.930;2022-09-17T05:45:34;11.70;99.90
19945;DHT22;10134;50.952;6.930;2022-09-17T05:48:02;11.70;99.90
19945;DHT22;10134;50.952;6.930;2022-09-17T05:50:30;11.70;99.90
19945;DHT22;10134;50.952;6.930;2022-09-17T05:53:06;11.70;99.90
19945;DHT22;10134;50.952;6.930;2022-09-17T05:55:33;11.80;99.90
19945;DHT22;10134;50.952;6.930;2022-09-17T05:58:14;11.80;99.90
19945;DHT22;10134;50.952;6.930;2022-09-17T06:00:42;11.80;99.90
19945;DHT22;10134;50.952;6.930;2022-09-17T06:03:11;11.90;99.90
19945;DHT22;10134;50.952;6.930;2022-09-17T06:05:39;11.90;99.90
19945;DHT22;10134;50.952;6.930;2022-09-17T06:08:07;11.90;99.90
19945;DHT22;10134;50.952;6.930;2022-09-17T06:10:38;12.00;99.90
19945;DHT22;10134;50.952;6.930;2022-09-17T06:13:05;12.00;99.90
19945;DHT22;10134;50.952;6.930;2022-09-17T06:15:33;12.10;99.90
19945;DHT22;10134;50.952;6.930;2022-09-17T06:18:00;12.10;99.90
19945;DHT22;10134;50.952;6.930;2022-09-17T06:20:27;12.10;99.90
19945;DHT22;10134;50.952;6.930;2022-09-17T06:22:56;12.20;99.90
19945;DHT22;10134;50.952;6.930;2022-09-17T06:25:24;12.20;99.90
19945;DHT22;10134;50.952;6.930;2022-09-17T06:27:52;12.30;99.90
19945;DHT22;10134;50.952;6.930;2022-09-17T06:30:19;12.40;99.90
19945;DHT22;10134;50.952;6.930;2022-09-17T06:32:46;12.50;99.90
19945;DHT22;10134;50.952;6.930;2022-09-17T06:35:14;12.50;99.90
19945;DHT22;10134;50.952;6.930;2022-09-17T06:37:41;12.60;99.90
19945;DHT22;10134;50.952;6.930;2022-09-17T06:40:08;12.70;99.90
19945;DHT22;10134;50.952;6.930;2022-09-17T06:42:36;12.70;99.90
19945;DHT22;10134;50.952;6.930;2022-09-17T06:45:04;12.80;99.90
19945;DHT22;10134;50.952;6.930;2022-09-17T06:47:36;12.80;99.90
19945;DHT22;10134;50.952;6.930;2022-09-17T06:50:03;12.80;99.90
19945;DHT22;10134;50.952;6.930;2022-09-17T06:52:31;12.70;99.90
19945;DHT22;10134;50.952;6.930;2022-09-17T06:54:58;12.70;99.90
19945;DHT22;10134;50.952;6.930;2022-09-17T06:57:25;12.70;99.90
19945;DHT22;10134;50.952;6.930;2022-09-17T06:59:52;12.70;99.90
19945;DHT22;10134;50.952;6.930;2022-09-17T07:02:20;12.70;99.90
19945;DHT22;10134;50.952;6.930;2022-09-17T07:04:47;12.70;99.90
19945;DHT22;10134;50.952;6.930;2022-09-17T07:07:15;12.80;99.90
19945;DHT22;10134;50.952;6.930;2022-09-17T07:09:42;12.80;99.90
19945;DHT22;10134;50.952;6.930;2022-09-17T07:12:09;12.80;99.90
19945;DHT22;10134;50.952;6.930;2022-09-17T07:14:37;12.80;99.90
19945;DHT22;10134;50.952;6.930;2022-09-17T07:17:04;12.90;99.90
19945;DHT22;10134;50.952;6.930;2022-09-17T07:19:31;13.00;99.90
19945;DHT22;10134;50.952;6.930;2022-09-17T07:21:59;13.00;99.90
19945;DHT22;10134;50.952;6.930;2022-09-17T07:24:26;13.10;99.90
19945;DHT22;10134;50.952;6.930;2022-09-17T07:26:59;13.10;99.90
19945;DHT22;10134;50.952;6.930;2022-09-17T07:29:27;13.20;99.90
19945;DHT22;10134;50.952;6.930;2022-09-17T07:31:55;13.20;99.90
19945;DHT22;10134;50.952;6.930;2022-09-17T07:34:24;13.20;99.90
19945;DHT22;10134;50.952;6.930;2022-09-17T07:36:54;13.20;99.90
19945;DHT22;10134;50.952;6.930;2022-09-17T07:39:21;13.30;99.90
19945;DHT22;10134;50.952;6.930;2022-09-17T07:41:49;13.30;99.90
19945;DHT22;10134;50.952;6.930;2022-09-17T07:44:16;13.30;99.90
19945;DHT22;10134;50.952;6.930;2022-09-17T07:46:44;13.40;99.90
19945;DHT22;10134;50.952;6.930;2022-09-17T07:49:14;13.40;99.90
19945;DHT22;10134;50.952;6.930;2022-09-17T07:51:41;13.40;99.90
19945;DHT22;10134;50.952;6.930;2022-09-17T07:54:09;13.50;99.90
19945;DHT22;10134;50.952;6.930;2022-09-17T07:56:37;13.50;99.90
19945;DHT22;10134;50.952;6.930;2022-09-17T07:59:04;13.50;99.90
19945;DHT22;10134;50.952;6.930;2022-09-17T08:01:32;13.50;99.90
19945;DHT22;10134;50.952;6.930;2022-09-17T08:04:05;13.60;99.90
19945;DHT22;10134;50.952;6.930;2022-09-17T08:06:36;13.60;99.90
19945;DHT22;10134;50.952;6.930;2022-09-17T08:09:04;13.60;99.90
19945;DHT22;10134;50.952;6.930;2022-09-17T08:11:31;13.70;99.90
19945;DHT22;10134;50.952;6.930;2022-09-17T08:14:18;13.80;99.90
19945;DHT22;10134;50.952;6.930;2022-09-17T08:16:46;13.90;99.90
19945;DHT22;10134;50.952;6.930;2022-09-17T08:19:14;14.00;99.90
19945;DHT22;10134;50.952;6.930;2022-09-17T08:21:41;14.10;99.90
19945;DHT22;10134;50.952;6.930;2022-09-17T08:24:08;14.20;99.90
19945;DHT22;10134;50.952;6.930;2022-09-17T08:26:36;14.30;99.90
19945;DHT22;10134;50.952;6.930;2022-09-17T08:29:04;14.40;99.90
19945;DHT22;10134;50.952;6.930;2022-09-17T08:31:33;14.50;99.90
19945;DHT22;10134;50.952;6.930;2022-09-17T08:34:01;14.50;99.90
19945;DHT22;10134;50.952;6.930;2022-09-17T08:36:28;14.60;99.90
19945;DHT22;10134;50.952;6.930;2022-09-17T08:38:58;14.60;99.90
19945;DHT22;10134;50.952;6.930;2022-09-17T08:46:57;14.60;99.90
19945;DHT22;10134;50.952;6.930;2022-09-17T08:49:48;14.70;99.90
19945;DHT22;10134;50.952;6.930;2022-09-17T08:55:45;14.90;99.90
19945;DHT22;10134;50.952;6.930;2022-09-17T09:01:19;14.90;99.90
19945;DHT22;10134;50.952;6.930;2022-09-17T09:07:01;15.00;99.90
19945;DHT22;10134;50.952;6.930;2022-09-17T09:09:35;15.00;99.90
19945;DHT22;10134;50.952;6.930;2022-09-17T09:12:10;15.00;99.90
19945;DHT22;10134;50.952;6.930;2022-09-17T09:17:17;15.10;99.90
19945;DHT22;10134;50.952;6.930;2022-09-17T09:19:45;15.20;99.90
19945;DHT22;10134;50.952;6.930;2022-09-17T09:25:10;15.20;99.90
19945;DHT22;10134;50.952;6.930;2022-09-17T09:27:55;15.20;99.90
19945;DHT22;10134;50.952;6.930;2022-09-17T09:30:29;15.30;99.90
19945;DHT22;10134;50.952;6.930;2022-09-17T09:33:15;15.30;99.90
19945;DHT22;10134;50.952;6.930;2022-09-17T09:35:44;15.30;99.90
19945;DHT22;10134;50.952;6.930;2022-09-17T09:40:54;15.20;99.90
19945;DHT22;10134;50.952;6.930;2022-09-17T09:43:47;15.20;99.90
19945;DHT22;10134;50.952;6.930;2022-09-17T09:57:58;15.50;99.90
19945;DHT22;10134;50.952;6.930;2022-09-17T10:00:38;15.60;99.90
19945;DHT22;10134;50.952;6.930;2022-09-17T10:03:19;15.70;99.90
19945;DHT22;10134;50.952;6.930;2022-09-17T10:05:57;15.70;99.90
19945;DHT22;10134;50.952;6.930;2022-09-17T10:08:26;15.80;99.90
19945;DHT22;10134;50.952;6.930;2022-09-17T10:13:38;15.90;99.90
19945;DHT22;10134;50.952;6.930;2022-09-17T10:16:25;15.90;99.50
19945;DHT22;10134;50.952;6.930;2022-09-17T10:21:35;15.90;99.00
19945;DHT22;10134;50.952;6.930;2022-09-17T10:24:08;15.90;97.90
19945;DHT22;10134;50.952;6.930;2022-09-17T10:26:39;15.80;97.10
19945;DHT22;10134;50.952;6.930;2022-09-17T10:29:16;15.70;97.10
19945;DHT22;10134;50.952;6.930;2022-09-17T10:31:51;15.80;96.00
19945;DHT22;10134;50.952;6.930;2022-09-17T10:34:29;15.80;96.30
19945;DHT22;10134;50.952;6.930;2022-09-17T10:37:00;15.80;95.70
19945;DHT22;10134;50.952;6.930;2022-09-17T10:39:33;15.80;95.50
19945;DHT22;10134;50.952;6.930;2022-09-17T10:42:14;15.90;95.60
19945;DHT22;10134;50.952;6.930;2022-09-17T10:44:53;15.90;95.90
19945;DHT22;10134;50.952;6.930;2022-09-17T10:47:27;16.00;94.70
19945;DHT22;10134;50.952;6.930;2022-09-17T10:49:58;16.10;94.60
19945;DHT22;10134;50.952;6.930;2022-09-17T10:52:31;16.20;94.90
19945;DHT22;10134;50.952;6.930;2022-09-17T11:12:04;16.90;96.50
19945;DHT22;10134;50.952;6.930;2022-09-17T11:32:13;16.80;94.10
19945;DHT22;10134;50.952;6.930;2022-09-17T11:37:38;17.00;94.60
19945;DHT22;10134;50.952;6.930;2022-09-17T11:42:56;17.30;94.90
19945;DHT22;10134;50.952;6.930;2022-09-17T11:45:31;17.30;94.60
19945;DHT22;10134;50.952;6.930;2022-09-17T11:48:14;17.30;94.40
19945;DHT22;10134;50.952;6.930;2022-09-17T11:50:44;17.10;94.10
19945;DHT22;10134;50.952;6.930;2022-09-17T11:55:54;16.80;95.10
19945;DHT22;10134;50.952;6.930;2022-09-17T12:01:07;16.60;97.40
19945;DHT22;10134;50.952;6.930;2022-09-17T12:03:41;16.60;98.00
19945;DHT22;10134;50.952;6.930;2022-09-17T12:06:20;16.60;98.90
19945;DHT22;10134;50.952;6.930;2022-09-17T12:11:33;16.60;99.70
19945;DHT22;10134;50.952;6.930;2022-09-17T12:14:23;16.50;99.90
19945;DHT22;10134;50.952;6.930;2022-09-17T12:16:59;16.50;99.90
19945;DHT22;10134;50.952;6.930;2022-09-17T12:19:42;16.50;99.90
19945;DHT22;10134;50.952;6.930;2022-09-17T12:22:26;16.50;99.90
19945;DHT22;10134;50.952;6.930;2022-09-17T12:24:56;16.50;99.90
19945;DHT22;10134;50.952;6.930;2022-09-17T12:27:55;16.60;99.90
19945;DHT22;10134;50.952;6.930;2022-09-17T12:30:32;16.60;99.20
19945;DHT22;10134;50.952;6.930;2022-09-17T12:39:17;16.50;99.00
19945;DHT22;10134;50.952;6.930;2022-09-17T12:58:36;16.50;98.20
19945;DHT22;10134;50.952;6.930;2022-09-17T13:01:16;16.50;98.50
19945;DHT22;10134;50.952;6.930;2022-09-17T13:10:33;16.40;99.90
19945;DHT22;10134;50.952;6.930;2022-09-17T13:16:52;16.40;99.90
19945;DHT22;10134;50.952;6.930;2022-09-17T13:22:26;16.20;99.90
19945;DHT22;10134;50.952;6.930;2022-09-17T13:25:06;16.10;99.90
19945;DHT22;10134;50.952;6.930;2022-09-17T13:27:34;15.90;99.90
19945;DHT22;10134;50.952;6.930;2022-09-17T13:30:08;15.70;99.90
19945;DHT22;10134;50.952;6.930;2022-09-17T13:37:52;14.90;99.90
19945;DHT22;10134;50.952;6.930;2022-09-17T13:42:56;14.50;99.90
19945;DHT22;10134;50.952;6.930;2022-09-17T13:45:25;14.50;99.90
19945;DHT22;10134;50.952;6.930;2022-09-17T13:48:05;15.20;99.90
19945;DHT22;10134;50.952;6.930;2022-09-17T13:50:39;15.60;99.90
19945;DHT22;10134;50.952;6.930;2022-09-17T13:55:52;16.00;99.90
19945;DHT22;10134;50.952;6.930;2022-09-17T13:58:22;17.00;99.90
19945;DHT22;10134;50.952;6.930;2022-09-17T14:01:10;17.60;99.90
19945;DHT22;10134;50.952;6.930;2022-09-17T14:16:45;22.20;96.50
19945;DHT22;10134;50.952;6.930;2022-09-17T14:19:30;22.30;95.10
19945;DHT22;10134;50.952;6.930;2022-09-17T14:22:02;21.90;94.90
19945;DHT22;10134;50.952;6.930;2022-09-17T14:30:19;20.20;96.70
19945;DHT22;10134;50.952;6.930;2022-09-17T14:33:07;19.50;97.10
19945;DHT22;10134;50.952;6.930;2022-09-17T14:35:41;19.00;98.20
19945;DHT22;10134;50.952;6.930;2022-09-17T14:41:06;18.00;99.90
19945;DHT22;10134;50.952;6.930;2022-09-17T14:44:02;17.60;99.90
19945;DHT22;10134;50.952;6.930;2022-09-17T14:46:39;17.10;99.90
19945;DHT22;10134;50.952;6.930;2022-09-17T14:49:25;16.60;99.90
19945;DHT22;10134;50.952;6.930;2022-09-17T14:51:55;16.40;99.90
19945;DHT22;10134;50.952;6.930;2022-09-17T14:54:30;16.40;99.90
19945;DHT22;10134;50.952;6.930;2022-09-17T14:59:57;16.40;99.90
19945;DHT22;10134;50.952;6.930;2022-09-17T15:04:56;16.20;99.90
19945;DHT22;10134;50.952;6.930;2022-09-17T15:07:25;16.10;99.90
19945;DHT22;10134;50.952;6.930;2022-09-17T15:09:53;16.00;99.90
19945;DHT22;10134;50.952;6.930;2022-09-17T15:12:41;15.80;99.90
19945;DHT22;10134;50.952;6.930;2022-09-17T15:15:23;15.70;99.90
19945;DHT22;10134;50.952;6.930;2022-09-17T15:17:52;15.50;99.90
19945;DHT22;10134;50.952;6.930;2022-09-17T15:20:23;15.50;99.90
19945;DHT22;10134;50.952;6.930;2022-09-17T15:23:06;15.40;99.90
19945;DHT22;10134;50.952;6.930;2022-09-17T15:25:37;15.30;99.90
19945;DHT22;10134;50.952;6.930;2022-09-17T15:30:57;15.00;99.90
19945;DHT22;10134;50.952;6.930;2022-09-17T15:33:25;14.90;99.90
19945;DHT22;10134;50.952;6.930;2022-09-17T15:36:06;14.90;99.90
19945;DHT22;10134;50.952;6.930;2022-09-17T15:38:35;14.90;99.90
19945;DHT22;10134;50.952;6.930;2022-09-17T15:43:48;14.90;99.90
19945;DHT22;10134;50.952;6.930;2022-09-17T15:46:26;14.90;99.90
19945;DHT22;10134;50.952;6.930;2022-09-17T15:49:23;14.90;99.90
19945;DHT22;10134;50.952;6.930;2022-09-17T15:51:42;15.00;99.90
19945;DHT22;10134;50.952;6.930;2022-09-17T15:54:28;15.00;99.90
19945;DHT22;10134;50.952;6.930;2022-09-17T15:56:59;15.00;99.90
19945;DHT22;10134;50.952;6.930;2022-09-17T15:59:29;15.00;99.90
19945;DHT22;10134;50.952;6.930;2022-09-17T16:01:59;15.10;99.90
19945;DHT22;10134;50.952;6.930;2022-09-17T16:04:30;15.20;99.90
19945;DHT22;10134;50.952;6.930;2022-09-17T16:07:02;15.30;99.90
19945;DHT22;10134;50.952;6.930;2022-09-17T16:09:48;15.20;99.90
19945;DHT22;10134;50.952;6.930;2022-09-17T16:12:18;15.20;99.90
19945;DHT22;10134;50.952;6.930;2022-09-17T16:14:51;15.10;99.90
19945;DHT22;10134;50.952;6.930;2022-09-17T16:19:54;15.00;99.90
19945;DHT22;10134;50.952;6.930;2022-09-17T16:22:22;14.90;99.90
19945;DHT22;10134;50.952;6.930;2022-09-17T16:24:50;14.90;99.90
19945;DHT22;10134;50.952;6.930;2022-09-17T16:27:22;14.80;99.90
19945;DHT22;10134;50.952;6.930;2022-09-17T16:29:55;14.80;99.90
19945;DHT22;10134;50.952;6.930;2022-09-17T16:32:24;14.90;99.90
19945;DHT22;10134;50.952;6.930;2022-09-17T16:34:51;14.90;99.90
19945;DHT22;10134;50.952;6.930;2022-09-17T16:37:19;15.00;99.90
19945;DHT22;10134;50.952;6.930;2022-09-17T16:39:46;15.00;99.90
19945;DHT22;10134;50.952;6.930;2022-09-17T16:42:13;15.00;99.90
19945;DHT22;10134;50.952;6.930;2022-09-17T16:44:41;15.00;99.90
19945;DHT22;10134;50.952;6.930;2022-09-17T16:47:08;15.00;99.90
19945;DHT22;10134;50.952;6.930;2022-09-17T16:49:35;15.00;99.90
19945;DHT22;10134;50.952;6.930;2022-09-17T16:52:02;15.00;99.90
19945;DHT22;10134;50.952;6.930;2022-09-17T16:54:29;14.90;99.90
19945;DHT22;10134;50.952;6.930;2022-09-17T16:56:57;14.90;99.90
19945;DHT22;10134;50.952;6.930;2022-09-17T16:59:24;14.80;99.90
19945;DHT22;10134;50.952;6.930;2022-09-17T17:01:52;14.70;99.90
19945;DHT22;10134;50.952;6.930;2022-09-17T17:04:19;14.70;99.90
19945;DHT22;10134;50.952;6.930;2022-09-17T17:06:47;14.60;99.90
19945;DHT22;10134;50.952;6.930;2022-09-17T17:09:14;14.50;99.90
19945;DHT22;10134;50.952;6.930;2022-09-17T17:11:42;14.50;99.90
19945;DHT22;10134;50.952;6.930;2022-09-17T17:14:09;14.40;99.90
19945;DHT22;10134;50.952;6.930;2022-09-17T17:16:41;14.40;99.90
19945;DHT22;10134;50.952;6.930;2022-09-17T17:19:09;14.30;99.90
19945;DHT22;10134;50.952;6.930;2022-09-17T17:21:37;14.20;99.90
19945;DHT22;10134;50.952;6.930;2022-09-17T17:24:04;14.20;99.90
19945;DHT22;10134;50.952;6.930;2022-09-17T17:26:33;14.10;99.90
19945;DHT22;10134;50.952;6.930;2022-09-17T17:29:00;14.00;99.90
19945;DHT22;10134;50.952;6.930;2022-09-17T17:31:28;14.00;99.90
19945;DHT22;10134;50.952;6.930;2022-09-17T17:33:57;13.90;99.90
19945;DHT22;10134;50.952;6.930;2022-09-17T17:36:24;13.80;99.90
19945;DHT22;10134;50.952;6.930;2022-09-17T17:38:58;13.80;99.90
19945;DHT22;10134;50.952;6.930;2022-09-17T17:41:26;13.70;99.90
19945;DHT22;10134;50.952;6.930;2022-09-17T17:43:55;13.60;99.90
19945;DHT22;10134;50.952;6.930;2022-09-17T17:46:23;13.60;99.90
19945;DHT22;10134;50.952;6.930;2022-09-17T17:48:51;13.50;99.90
19945;DHT22;10134;50.952;6.930;2022-09-17T17:51:18;13.50;99.90
19945;DHT22;10134;50.952;6.930;2022-09-17T17:53:45;13.40;99.90
19945;DHT22;10134;50.952;6.930;2022-09-17T17:56:13;13.40;99.90
19945;DHT22;10134;50.952;6.930;2022-09-17T17:58:40;13.40;99.90
19945;DHT22;10134;50.952;6.930;2022-09-17T18:01:13;13.30;99.90
19945;DHT22;10134;50.952;6.930;2022-09-17T18:03:41;13.30;99.90
19945;DHT22;10134;50.952;6.930;2022-09-17T18:06:09;13.30;99.90
19945;DHT22;10134;50.952;6.930;2022-09-17T18:08:38;13.20;99.90
19945;DHT22;10134;50.952;6.930;2022-09-17T18:11:08;13.10;99.90
19945;DHT22;10134;50.952;6.930;2022-09-17T18:13:37;13.10;99.90
19945;DHT22;10134;50.952;6.930;2022-09-17T18:16:05;13.10;99.90
19945;DHT22;10134;50.952;6.930;2022-09-17T18:18:36;13.10;99.90
19945;DHT22;10134;50.952;6.930;2022-09-17T18:21:13;13.10;99.90
19945;DHT22;10134;50.952;6.930;2022-09-17T18:23:42;13.20;99.90
19945;DHT22;10134;50.952;6.930;2022-09-17T18:26:15;13.20;99.90
19945;DHT22;10134;50.952;6.930;2022-09-17T18:28:43;13.20;99.90
19945;DHT22;10134;50.952;6.930;2022-09-17T18:31:21;13.20;99.90
19945;DHT22;10134;50.952;6.930;2022-09-17T18:33:55;13.20;99.90
19945;DHT22;10134;50.952;6.930;2022-09-17T18:36:29;13.30;99.90
19945;DHT22;10134;50.952;6.930;2022-09-17T18:39:02;13.30;99.90
19945;DHT22;10134;50.952;6.930;2022-09-17T18:41:51;13.30;99.90
19945;DHT22;10134;50.952;6.930;2022-09-17T18:44:19;13.30;99.90
19945;DHT22;10134;50.952;6.930;2022-09-17T18:46:48;13.20;99.90
19945;DHT22;10134;50.952;6.930;2022-09-17T18:49:17;13.20;99.90
19945;DHT22;10134;50.952;6.930;2022-09-17T18:51:44;13.20;99.90
19945;DHT22;10134;50.952;6.930;2022-09-17T18:54:12;13.20;99.90
19945;DHT22;10134;50.952;6.930;2022-09-17T18:56:40;13.20;99.90
19945;DHT22;10134;50.952;6.930;2022-09-17T18:59:10;13.30;99.90
19945;DHT22;10134;50.952;6.930;2022-09-17T19:01:37;13.30;99.90
19945;DHT22;10134;50.952;6.930;2022-09-17T19:04:05;13.30;99.90
19945;DHT22;10134;50.952;6.930;2022-09-17T19:06:36;13.30;99.90
19945;DHT22;10134;50.952;6.930;2022-09-17T19:09:04;13.20;99.90
19945;DHT22;10134;50.952;6.930;2022-09-17T19:11:33;13.20;99.90
19945;DHT22;10134;50.952;6.930;2022-09-17T19:14:00;13.30;99.90
19945;DHT22;10134;50.952;6.930;2022-09-17T19:16:28;13.30;99.90
19945;DHT22;10134;50.952;6.930;2022-09-17T19:18:55;13.30;99.90
19945;DHT22;10134;50.952;6.930;2022-09-17T19:21:23;13.30;99.90